createdAt,value
2023-05-05T00:01:10.683Z,7.72
2023-05-05T00:03:38.700Z,7.65
2023-05-05T00:06:05.808Z,7.60
2023-05-05T00:08:32.435Z,7.58
2023-05-05T00:10:58.986Z,7.51
2023-05-05T00:13:28.452Z,7.44
2023-05-05T00:15:55.059Z,7.40
2023-05-05T00:18:21.638Z,7.35
2023-05-05T00:20:49.560Z,7.33
2023-05-05T00:23:16.730Z,7.30
2023-05-05T00:25:43.507Z,7.28
2023-05-05T00:28:10.446Z,7.25
2023-05-05T00:30:37.122Z,7.23
2023-05-05T00:33:04.297Z,7.22
2023-05-05T00:35:31.041Z,7.23
2023-05-05T00:37:58.971Z,7.20
2023-05-05T00:40:25.635Z,7.18
2023-05-05T00:42:52.551Z,7.16
2023-05-05T00:45:20.407Z,7.13
2023-05-05T00:47:48.939Z,7.11
2023-05-05T00:50:22.171Z,7.10
2023-05-05T00:52:49.318Z,7.07
2023-05-05T00:55:17.752Z,7.07
2023-05-05T00:57:45.053Z,7.04
2023-05-05T01:00:12.314Z,7.04
2023-05-05T01:02:39.543Z,7.03
2023-05-05T01:05:07.524Z,7.01
2023-05-05T01:07:44.674Z,6.97
2023-05-05T01:10:20.899Z,6.92
2023-05-05T01:12:58.419Z,6.93
2023-05-05T01:15:33.281Z,6.89
2023-05-05T01:18:17.374Z,6.84
2023-05-05T01:20:53.245Z,6.78
2023-05-05T01:23:43.345Z,6.72
2023-05-05T01:26:24.669Z,6.68
2023-05-05T01:29:13.482Z,6.64
2023-05-05T01:31:48.043Z,6.62
2023-05-05T01:34:19.181Z,6.58
2023-05-05T01:36:52.803Z,6.54
2023-05-05T01:39:21.080Z,6.51
2023-05-05T01:41:50.341Z,6.48
2023-05-05T01:44:17.946Z,6.50
2023-05-05T01:46:47.362Z,6.51
2023-05-05T01:49:15.520Z,6.52
2023-05-05T01:51:43.266Z,6.52
2023-05-05T01:54:10.330Z,6.56
2023-05-05T01:56:39.927Z,6.55
2023-05-05T01:59:07.481Z,6.57
2023-05-05T02:01:37.626Z,6.60
2023-05-05T02:04:07.776Z,6.62
2023-05-05T02:06:35.589Z,6.64
2023-05-05T02:09:03.122Z,6.65
2023-05-05T02:11:30.088Z,6.68
2023-05-05T02:13:58.824Z,6.70
2023-05-05T02:16:26.162Z,6.73
2023-05-05T02:18:54.651Z,6.74
2023-05-05T02:21:22.580Z,6.77
2023-05-05T02:23:49.282Z,6.81
2023-05-05T02:26:17.332Z,6.83
2023-05-05T02:28:48.785Z,6.84
2023-05-05T02:31:17.515Z,6.85
2023-05-05T02:33:46.872Z,6.89
2023-05-05T02:36:19.092Z,6.88
2023-05-05T02:38:48.638Z,6.88
2023-05-05T02:41:19.851Z,6.90
2023-05-05T02:43:49.332Z,6.92
2023-05-05T02:46:16.018Z,6.89
2023-05-05T02:48:42.551Z,6.87
2023-05-05T02:51:09.172Z,6.85
2023-05-05T02:53:36.028Z,6.83
2023-05-05T02:56:34.967Z,6.80
2023-05-05T03:02:27.621Z,6.67
2023-05-05T03:05:00.500Z,6.63
2023-05-05T03:07:32.409Z,6.61
2023-05-05T03:10:06.596Z,6.58
2023-05-05T03:12:39.805Z,6.55
2023-05-05T03:15:10.396Z,6.50
2023-05-05T03:17:38.252Z,6.46
2023-05-05T03:20:06.850Z,6.45
2023-05-05T03:22:35.570Z,6.47
2023-05-05T03:25:02.370Z,6.48
2023-05-05T03:27:29.160Z,6.48
2023-05-05T03:29:57.185Z,6.47
2023-05-05T03:32:24.170Z,6.47
2023-05-05T03:34:50.934Z,6.46
2023-05-05T03:37:17.476Z,6.47
2023-05-05T03:39:44.156Z,6.46
2023-05-05T03:42:10.701Z,6.45
2023-05-05T03:44:37.275Z,6.45
2023-05-05T03:47:05.619Z,6.47
2023-05-05T03:49:32.224Z,6.48
2023-05-05T03:51:58.858Z,6.51
2023-05-05T03:54:25.438Z,6.51
2023-05-05T03:56:52.106Z,6.47
2023-05-05T03:59:18.662Z,6.48
2023-05-05T04:01:45.371Z,6.49
2023-05-05T04:04:13.359Z,6.46
2023-05-05T04:06:39.938Z,6.38
2023-05-05T04:09:06.501Z,6.32
2023-05-05T04:11:33.073Z,6.26
2023-05-05T04:13:59.615Z,6.20
2023-05-05T04:16:26.277Z,6.18
2023-05-05T04:18:52.986Z,6.13
2023-05-05T04:21:20.870Z,6.12
2023-05-05T04:23:47.816Z,6.15
2023-05-05T04:26:14.378Z,6.17
2023-05-05T04:28:41.067Z,6.20
2023-05-05T04:31:07.603Z,6.23
2023-05-05T04:33:34.309Z,6.29
2023-05-05T04:36:00.848Z,6.36
2023-05-05T04:38:28.904Z,6.45
2023-05-05T04:40:55.522Z,6.59
2023-05-05T04:43:22.199Z,6.75
2023-05-05T04:45:55.203Z,6.87
2023-05-05T04:48:21.788Z,6.97
2023-05-05T04:50:48.488Z,7.10
2023-05-05T04:53:15.008Z,7.18
2023-05-05T04:55:43.007Z,7.25
2023-05-05T04:58:09.587Z,7.30
2023-05-05T05:00:36.465Z,7.35
2023-05-05T05:03:03.820Z,7.42
2023-05-05T05:05:30.621Z,7.49
2023-05-05T05:07:57.158Z,7.54
2023-05-05T05:10:23.744Z,7.61
2023-05-05T05:12:51.957Z,7.69
2023-05-05T05:15:18.551Z,7.76
2023-05-05T05:17:45.177Z,7.82
2023-05-05T05:20:12.003Z,7.94
2023-05-05T05:22:38.594Z,8.07
2023-05-05T05:25:05.929Z,8.16
2023-05-05T05:27:32.526Z,8.27
2023-05-05T05:30:00.632Z,8.39
2023-05-05T05:32:27.179Z,8.50
2023-05-05T05:34:53.721Z,8.60
2023-05-05T05:37:20.343Z,8.70
2023-05-05T05:39:51.654Z,8.82
2023-05-05T05:42:18.219Z,8.88
2023-05-05T05:44:44.756Z,8.97
2023-05-05T05:47:12.677Z,9.04
2023-05-05T05:49:39.190Z,9.06
2023-05-05T05:52:05.706Z,9.09
2023-05-05T05:54:32.398Z,9.09
2023-05-05T05:56:58.922Z,9.11
2023-05-05T05:59:25.460Z,9.14
2023-05-05T06:01:52.069Z,9.18
2023-05-05T06:04:20.196Z,9.22
2023-05-05T06:06:46.787Z,9.26
2023-05-05T06:09:13.362Z,9.42
2023-05-05T06:11:39.950Z,9.67
2023-05-05T06:14:06.653Z,9.89
2023-05-05T06:16:33.381Z,10.12
2023-05-05T06:19:00.137Z,10.36
2023-05-05T06:21:28.153Z,10.56
2023-05-05T06:23:54.721Z,10.74
2023-05-05T06:26:21.298Z,10.94
2023-05-05T06:28:47.831Z,11.09
2023-05-05T06:31:14.386Z,11.40
2023-05-05T06:33:41.327Z,11.73
2023-05-05T06:36:08.455Z,12.12
2023-05-05T06:38:36.594Z,12.42
2023-05-05T06:41:03.533Z,12.56
2023-05-05T06:43:30.119Z,12.72
2023-05-05T06:45:58.442Z,12.93
2023-05-05T06:48:25.087Z,13.02
2023-05-05T06:50:51.632Z,13.15
2023-05-05T06:53:18.254Z,13.20
2023-05-05T06:55:47.451Z,13.13
2023-05-05T06:58:14.013Z,13.08
2023-05-05T07:00:40.940Z,13.18
2023-05-05T07:03:07.707Z,13.35
2023-05-05T07:05:34.355Z,13.51
2023-05-05T07:08:00.911Z,13.70
2023-05-05T07:10:27.933Z,13.78
2023-05-05T07:12:56.006Z,14.07
2023-05-05T07:15:28.866Z,14.48
2023-05-05T07:17:56.049Z,14.66
2023-05-05T07:20:22.635Z,14.84
2023-05-05T07:22:49.176Z,15.20
2023-05-05T07:25:15.784Z,15.43
2023-05-05T07:27:42.412Z,15.72
2023-05-05T07:30:14.252Z,16.10
2023-05-05T07:32:43.222Z,16.17
2023-05-05T07:35:10.316Z,16.00
2023-05-05T07:37:36.910Z,16.23
2023-05-05T07:40:04.025Z,16.19
2023-05-05T07:42:30.617Z,16.23
2023-05-05T07:44:57.115Z,16.30
2023-05-05T07:47:25.215Z,16.78
2023-05-05T07:49:51.749Z,17.08
2023-05-05T07:52:18.477Z,17.41
2023-05-05T07:54:45.082Z,17.23
2023-05-05T07:57:11.723Z,17.09
2023-05-05T07:59:38.252Z,17.08
2023-05-05T08:02:04.788Z,17.25
2023-05-05T08:04:32.781Z,17.29
2023-05-05T08:06:59.382Z,17.33
2023-05-05T08:09:25.985Z,17.35
2023-05-05T08:11:52.517Z,17.24
2023-05-05T08:14:27.214Z,17.93
2023-05-05T08:16:53.757Z,18.51
2023-05-05T08:19:28.861Z,18.36
2023-05-05T08:21:58.829Z,18.05
2023-05-05T08:24:26.653Z,18.50
2023-05-05T08:26:53.189Z,18.88
2023-05-05T08:29:19.927Z,18.59
2023-05-05T08:31:46.572Z,18.38
2023-05-05T08:34:13.214Z,18.42
2023-05-05T08:36:39.789Z,18.36
2023-05-05T08:39:07.968Z,18.93
2023-05-05T08:41:35.808Z,19.29
2023-05-05T08:44:02.360Z,19.30
2023-05-05T08:46:29.886Z,19.07
2023-05-05T08:48:58.623Z,19.19
2023-05-05T08:51:29.521Z,19.19
2023-05-05T08:53:57.693Z,19.42
2023-05-05T08:56:31.989Z,19.27
2023-05-05T08:58:59.527Z,19.23
2023-05-05T09:01:26.254Z,19.49
2023-05-05T09:03:53.205Z,19.85
2023-05-05T09:06:20.759Z,19.82
2023-05-05T09:08:47.450Z,19.95
2023-05-05T09:11:14.506Z,19.73
2023-05-05T09:13:42.370Z,20.05
2023-05-05T09:16:09.193Z,20.32
2023-05-05T09:18:37.532Z,20.79
2023-05-05T09:21:18.947Z,20.95
2023-05-05T09:24:08.159Z,21.23
2023-05-05T09:26:36.999Z,21.41
2023-05-05T09:29:06.290Z,21.96
2023-05-05T09:31:34.259Z,21.95
2023-05-05T09:34:01.366Z,21.99
2023-05-05T09:36:47.613Z,22.55
2023-05-05T09:39:14.631Z,22.08
2023-05-05T09:41:42.686Z,22.47
2023-05-05T09:44:11.169Z,23.16
2023-05-05T09:46:38.104Z,22.93
2023-05-05T09:49:14.755Z,23.09
2023-05-05T09:51:41.417Z,23.36
2023-05-05T09:54:08.169Z,23.47
2023-05-05T09:56:38.831Z,23.55
2023-05-05T09:59:09.932Z,23.37
2023-05-05T10:01:36.594Z,23.63
2023-05-05T10:04:03.280Z,23.93
2023-05-05T10:06:44.463Z,24.35
2023-05-05T10:09:11.051Z,24.02
2023-05-05T10:11:38.616Z,24.14
2023-05-05T10:14:07.466Z,23.84
2023-05-05T10:16:35.885Z,24.09
2023-05-05T10:19:03.404Z,23.98
2023-05-05T10:21:33.877Z,24.87
2023-05-05T10:24:09.493Z,25.28
2023-05-05T10:26:41.042Z,25.38
2023-05-05T10:29:13.406Z,25.61
2023-05-05T10:31:45.347Z,25.50
2023-05-05T10:34:18.417Z,25.31
2023-05-05T10:36:45.505Z,25.15
2023-05-05T10:39:15.071Z,24.88
2023-05-05T10:41:42.422Z,25.54
2023-05-05T10:44:09.258Z,24.97
2023-05-05T10:46:36.450Z,25.23
2023-05-05T10:49:12.496Z,25.78
2023-05-05T10:51:46.905Z,25.79
2023-05-05T10:54:19.619Z,25.19
2023-05-05T10:56:47.123Z,25.27
2023-05-05T10:59:41.165Z,25.64
2023-05-05T11:02:25.397Z,25.83
2023-05-05T11:05:09.094Z,26.67
2023-05-05T11:07:36.056Z,26.91
2023-05-05T11:10:07.518Z,26.91
2023-05-05T11:13:15.744Z,26.63
2023-05-05T11:15:42.336Z,26.34
2023-05-05T11:18:29.430Z,25.67
2023-05-05T11:21:08.665Z,25.73
2023-05-05T11:23:35.225Z,26.11
2023-05-05T11:26:01.811Z,26.70
2023-05-05T11:28:29.955Z,25.94
2023-05-05T11:31:15.828Z,26.69
2023-05-05T11:33:42.475Z,26.29
2023-05-05T11:36:11.777Z,26.63
2023-05-05T11:38:48.423Z,26.88
2023-05-05T11:41:28.016Z,27.09
2023-05-05T11:44:08.787Z,26.79
2023-05-05T11:46:35.703Z,26.98
2023-05-05T11:49:02.527Z,27.41
2023-05-05T11:51:31.415Z,27.91
2023-05-05T11:53:59.144Z,27.53
2023-05-05T11:56:25.938Z,27.25
2023-05-05T11:59:09.084Z,26.85
2023-05-05T12:01:39.160Z,25.96
2023-05-05T12:04:05.813Z,26.60
2023-05-05T12:06:34.162Z,26.77
2023-05-05T12:09:01.254Z,27.02
2023-05-05T12:11:27.810Z,26.43
2023-05-05T12:14:15.082Z,25.31
2023-05-05T12:16:53.466Z,25.28
2023-05-05T12:19:20.165Z,25.32
2023-05-05T12:21:48.155Z,24.90
2023-05-05T12:24:15.254Z,24.36
2023-05-05T12:26:41.971Z,24.39
2023-05-05T12:29:08.555Z,23.85
2023-05-05T12:31:35.600Z,22.21
2023-05-05T12:34:06.058Z,21.42
2023-05-05T12:36:33.372Z,21.05
2023-05-05T12:39:01.521Z,20.64
2023-05-05T12:41:28.548Z,20.25
2023-05-05T12:43:55.923Z,20.37
2023-05-05T12:46:23.168Z,20.47
2023-05-05T12:49:00.228Z,20.50
2023-05-05T12:51:27.159Z,20.37
2023-05-05T12:54:04.182Z,21.42
2023-05-05T12:56:35.306Z,22.72
2023-05-05T12:59:03.836Z,22.49
2023-05-05T13:01:30.620Z,23.19
2023-05-05T13:04:08.876Z,23.34
2023-05-05T13:06:35.723Z,23.06
2023-05-05T13:09:03.754Z,23.54
2023-05-05T13:11:30.346Z,24.30
2023-05-05T13:13:56.896Z,23.59
2023-05-05T13:16:23.648Z,22.31
2023-05-05T13:18:50.776Z,22.95
2023-05-05T13:21:17.499Z,22.59
2023-05-05T13:23:44.402Z,22.78
2023-05-05T13:26:13.096Z,22.35
2023-05-05T13:28:40.076Z,22.14
2023-05-05T13:31:06.944Z,21.50
2023-05-05T13:33:34.495Z,21.24
2023-05-05T13:36:01.361Z,20.73
2023-05-05T13:38:28.068Z,20.62
2023-05-05T13:40:54.784Z,20.86
2023-05-05T13:43:22.813Z,20.13
2023-05-05T13:45:49.392Z,20.03
2023-05-05T13:48:15.926Z,20.25
2023-05-05T13:50:42.503Z,20.45
2023-05-05T13:53:09.026Z,20.86
2023-05-05T13:55:35.789Z,20.81
2023-05-05T13:58:02.349Z,20.97
2023-05-05T14:00:30.263Z,20.91
2023-05-05T14:02:56.970Z,21.90
2023-05-05T14:05:23.589Z,22.82
2023-05-05T14:07:50.164Z,23.75
2023-05-05T14:10:16.742Z,23.90
2023-05-05T14:12:43.330Z,24.64
2023-05-05T14:15:10.660Z,25.22
2023-05-05T14:17:38.862Z,25.75
2023-05-05T14:20:06.816Z,26.16
2023-05-05T14:22:33.623Z,26.84
2023-05-05T14:25:00.265Z,26.04
2023-05-05T14:27:26.969Z,26.17
2023-05-05T14:29:53.628Z,26.37
2023-05-05T14:32:20.280Z,26.73
2023-05-05T14:34:50.312Z,26.67
2023-05-05T14:37:21.963Z,26.17
2023-05-05T14:39:49.969Z,25.20
2023-05-05T14:42:16.511Z,25.78
2023-05-05T14:44:44.534Z,25.63
2023-05-05T14:47:13.960Z,25.27
2023-05-05T14:49:40.704Z,25.43
2023-05-05T14:52:11.141Z,26.12
2023-05-05T14:54:37.706Z,26.35
2023-05-05T14:57:04.610Z,25.93
2023-05-05T14:59:31.285Z,25.82
2023-05-05T15:01:57.994Z,26.00
2023-05-05T15:04:24.661Z,25.52
2023-05-05T15:06:51.606Z,25.23
2023-05-05T15:09:19.539Z,24.71
2023-05-05T15:11:46.243Z,23.74
2023-05-05T15:14:12.930Z,23.75
2023-05-05T15:16:39.604Z,23.52
2023-05-05T15:19:06.316Z,23.55
2023-05-05T15:21:35.717Z,23.09
2023-05-05T15:24:02.309Z,22.26
2023-05-05T15:26:31.368Z,21.28
2023-05-05T15:28:57.923Z,19.65
2023-05-05T15:31:24.602Z,18.70
2023-05-05T15:33:51.185Z,18.66
2023-05-05T15:36:17.873Z,17.70
2023-05-05T15:38:44.454Z,17.72
2023-05-05T15:41:11.184Z,17.51
2023-05-05T15:43:39.083Z,17.51
2023-05-05T15:46:05.890Z,17.08
2023-05-05T15:48:32.526Z,17.05
2023-05-05T15:50:59.122Z,16.91
2023-05-05T15:53:25.661Z,16.84
2023-05-05T15:55:52.331Z,16.88
2023-05-05T15:58:18.884Z,16.94
2023-05-05T16:00:46.768Z,16.86
2023-05-05T16:03:13.398Z,16.88
2023-05-05T16:05:39.945Z,16.90
2023-05-05T16:08:06.491Z,16.86
2023-05-05T16:10:33.050Z,16.71
2023-05-05T16:12:59.594Z,16.68
2023-05-05T16:15:26.137Z,16.40
2023-05-05T16:17:54.173Z,15.96
2023-05-05T16:20:22.200Z,15.73
2023-05-05T16:22:48.785Z,15.43
2023-05-05T16:25:18.016Z,14.79
2023-05-05T16:27:44.580Z,14.64
2023-05-05T16:30:12.256Z,14.70
2023-05-05T16:32:38.891Z,14.64
2023-05-05T16:35:07.552Z,14.78
2023-05-05T16:37:34.718Z,14.63
2023-05-05T16:40:01.304Z,14.71
2023-05-05T16:42:27.870Z,14.87
2023-05-05T16:44:54.413Z,14.77
2023-05-05T16:47:21.088Z,14.68
2023-05-05T16:49:47.652Z,14.72
2023-05-05T16:52:15.537Z,14.59
2023-05-05T16:54:42.186Z,14.55
2023-05-05T16:57:08.785Z,14.55
2023-05-05T16:59:35.376Z,14.41
2023-05-05T17:02:01.956Z,14.22
2023-05-05T17:04:28.482Z,14.25
2023-05-05T17:06:55.019Z,14.24
2023-05-05T17:09:22.903Z,14.31
2023-05-05T17:11:51.688Z,14.50
2023-05-05T17:14:18.224Z,14.59
2023-05-05T17:16:44.935Z,14.54
2023-05-05T17:19:14.417Z,14.51
2023-05-05T17:21:40.975Z,14.45
2023-05-05T17:24:08.349Z,14.48
2023-05-05T17:26:36.242Z,14.58
2023-05-05T17:29:02.861Z,14.54
2023-05-05T17:31:29.426Z,14.47
2023-05-05T17:33:56.064Z,14.40
2023-05-05T17:36:22.679Z,14.40
2023-05-05T17:38:49.283Z,14.38
2023-05-05T17:41:15.887Z,14.30
2023-05-05T17:43:43.785Z,14.16
2023-05-05T17:46:10.354Z,13.96
2023-05-05T17:48:36.962Z,13.77
2023-05-05T17:51:03.640Z,13.69
2023-05-05T17:53:30.249Z,13.74
2023-05-05T17:55:56.787Z,13.64
2023-05-05T17:58:23.445Z,13.52
2023-05-05T18:00:51.453Z,13.55
2023-05-05T18:03:18.354Z,13.58
2023-05-05T18:05:45.119Z,13.54
2023-05-05T18:08:11.665Z,13.60
2023-05-05T18:10:38.404Z,13.61
2023-05-05T18:13:05.054Z,13.48
2023-05-05T18:15:31.756Z,13.40
2023-05-05T18:17:59.752Z,13.43
2023-05-05T18:20:26.384Z,13.42
2023-05-05T18:22:53.127Z,13.40
2023-05-05T18:25:19.934Z,13.38
2023-05-05T18:27:46.466Z,13.35
2023-05-05T18:30:13.367Z,13.14
2023-05-05T18:32:39.981Z,13.09
2023-05-05T18:35:09.186Z,13.10
2023-05-05T18:37:35.814Z,13.09
2023-05-05T18:40:02.559Z,13.07
2023-05-05T18:42:29.137Z,13.03
2023-05-05T18:44:55.715Z,12.99
2023-05-05T18:47:22.259Z,12.85
2023-05-05T18:49:48.819Z,12.79
2023-05-05T18:52:16.794Z,12.75
2023-05-05T18:54:43.374Z,12.71
2023-05-05T18:57:10.002Z,12.65
2023-05-05T18:59:36.551Z,12.63
2023-05-05T19:02:03.086Z,12.65
2023-05-05T19:04:31.759Z,12.66
2023-05-05T19:06:58.632Z,12.68
2023-05-05T19:09:26.706Z,12.65
2023-05-05T19:11:53.279Z,12.62
2023-05-05T19:14:19.874Z,12.57
2023-05-05T19:16:46.668Z,12.53
2023-05-05T19:19:13.351Z,12.48
2023-05-05T19:21:39.948Z,12.46
2023-05-05T19:24:09.461Z,12.44
2023-05-05T19:26:37.396Z,12.40
2023-05-05T19:29:04.160Z,12.36
2023-05-05T19:31:31.158Z,12.32
2023-05-05T19:34:00.917Z,12.27
2023-05-05T19:36:28.132Z,12.27
2023-05-05T19:38:55.665Z,12.24
2023-05-05T19:41:22.439Z,12.24
2023-05-05T19:43:50.405Z,12.27
2023-05-05T19:46:17.274Z,12.31
2023-05-05T19:48:43.860Z,12.30
2023-05-05T19:51:10.440Z,12.27
2023-05-05T19:53:36.956Z,12.24
2023-05-05T19:56:03.960Z,12.23
2023-05-05T19:58:30.512Z,12.23
2023-05-05T20:00:58.467Z,12.22
2023-05-05T20:03:25.318Z,12.25
2023-05-05T20:05:51.853Z,12.26
2023-05-05T20:08:18.450Z,12.26
2023-05-05T20:10:45.015Z,12.28
2023-05-05T20:13:11.596Z,12.24
2023-05-05T20:15:38.423Z,12.26
2023-05-05T20:18:06.491Z,12.26
2023-05-05T20:20:33.269Z,12.24
2023-05-05T20:22:59.784Z,12.24
2023-05-05T20:25:26.742Z,12.16
2023-05-05T20:27:53.270Z,12.16
2023-05-05T20:30:19.875Z,12.14
2023-05-05T20:32:46.473Z,12.14
2023-05-05T20:35:14.466Z,12.01
2023-05-05T20:37:41.459Z,11.77
2023-05-05T20:40:09.445Z,11.71
2023-05-05T20:42:36.454Z,11.55
2023-05-05T20:45:03.376Z,11.44
2023-05-05T20:47:30.019Z,11.38
2023-05-05T20:49:56.652Z,11.42
2023-05-05T20:52:24.598Z,11.49
2023-05-05T20:54:51.150Z,11.47
2023-05-05T20:57:17.762Z,11.43
2023-05-05T20:59:44.376Z,11.36
2023-05-05T21:02:11.003Z,11.41
2023-05-05T21:04:37.832Z,11.45
2023-05-05T21:07:04.433Z,11.42
2023-05-05T21:09:32.575Z,11.40
2023-05-05T21:11:59.228Z,11.44
2023-05-05T21:14:25.921Z,11.37
2023-05-05T21:16:52.537Z,11.36
2023-05-05T21:19:27.933Z,11.33
2023-05-05T21:21:54.586Z,11.25
2023-05-05T21:24:21.124Z,11.22
2023-05-05T21:26:49.073Z,11.21
2023-05-05T21:29:15.663Z,11.20
2023-05-05T21:31:42.376Z,11.17
2023-05-05T21:34:09.130Z,11.16
2023-05-05T21:36:35.674Z,11.11
2023-05-05T21:39:02.328Z,11.05
2023-05-05T21:41:29.087Z,11.03
2023-05-05T21:43:57.873Z,11.02
2023-05-05T21:46:24.635Z,11.05
2023-05-05T21:48:51.226Z,11.07
2023-05-05T21:51:18.809Z,11.05
2023-05-05T21:53:45.471Z,11.02
2023-05-05T21:56:12.025Z,11.01
2023-05-05T21:58:40.494Z,10.96
2023-05-05T22:01:08.498Z,10.93
2023-05-05T22:03:36.308Z,10.87
2023-05-05T22:06:03.022Z,10.77
2023-05-05T22:08:29.558Z,10.71
2023-05-05T22:10:56.110Z,10.65
2023-05-05T22:13:22.720Z,10.58
2023-05-05T22:15:49.552Z,10.46
2023-05-05T22:18:17.621Z,10.37
2023-05-05T22:20:44.269Z,10.35
2023-05-05T22:23:10.978Z,10.29
2023-05-05T22:25:37.482Z,10.28
2023-05-05T22:28:04.583Z,10.26
2023-05-05T22:30:32.402Z,10.27
2023-05-05T22:32:59.025Z,10.28
2023-05-05T22:35:27.382Z,10.29
2023-05-05T22:37:54.071Z,10.29
2023-05-05T22:40:20.679Z,10.33
2023-05-05T22:42:47.262Z,10.33
2023-05-05T22:45:13.913Z,10.30
2023-05-05T22:47:40.651Z,10.32
2023-05-05T22:50:08.324Z,10.31
2023-05-05T22:52:36.363Z,10.32
2023-05-05T22:55:03.091Z,10.36
2023-05-05T22:57:31.786Z,10.36
2023-05-05T23:00:00.117Z,10.35
2023-05-05T23:02:27.091Z,10.34
2023-05-05T23:04:53.901Z,10.34
2023-05-05T23:07:20.471Z,10.34
2023-05-05T23:09:48.493Z,10.32
2023-05-05T23:12:15.155Z,10.31
2023-05-05T23:14:41.699Z,10.33
2023-05-05T23:17:08.234Z,10.30
2023-05-05T23:19:35.158Z,10.29
2023-05-05T23:22:01.988Z,10.30
2023-05-05T23:24:29.001Z,10.27
2023-05-05T23:26:59.046Z,10.28
2023-05-05T23:29:28.158Z,10.23
2023-05-05T23:31:54.776Z,10.20
2023-05-05T23:34:21.456Z,10.17
2023-05-05T23:36:48.097Z,10.12
2023-05-05T23:39:14.868Z,10.08
2023-05-05T23:41:41.452Z,10.03
2023-05-05T23:44:09.552Z,9.98
2023-05-05T23:46:36.540Z,9.93
2023-05-05T23:49:03.216Z,9.92
2023-05-05T23:51:29.842Z,9.88
2023-05-05T23:53:56.731Z,9.83
2023-05-05T23:56:23.465Z,9.82
2023-05-05T23:58:50.082Z,9.80
